createdAt,value
2023-02-19T00:00:15.522Z,9.9
2023-02-19T00:02:19.340Z,9.9
2023-02-19T00:04:23.149Z,9.9
2023-02-19T00:06:26.982Z,9.8
2023-02-19T00:16:49.429Z,9.8
2023-02-19T00:18:53.251Z,9.8
2023-02-19T00:21:18.412Z,9.8
2023-02-19T00:23:22.234Z,9.8
2023-02-19T00:25:26.057Z,9.8
2023-02-19T00:27:33.139Z,9.8
2023-02-19T00:29:36.983Z,9.8
2023-02-19T00:35:48.470Z,9.9
2023-02-19T00:37:52.293Z,9.8
2023-02-19T00:42:03.240Z,9.8
2023-02-19T00:44:07.060Z,9.8
2023-02-19T00:48:14.708Z,9.8
2023-02-19T00:50:18.569Z,9.7
2023-02-19T00:52:22.376Z,9.8
2023-02-19T00:54:26.193Z,9.7
2023-02-19T00:56:33.339Z,9.8
2023-02-19T00:58:37.152Z,9.7
2023-02-19T01:00:40.960Z,9.7
2023-02-19T01:02:44.850Z,9.8
2023-02-19T01:04:48.690Z,9.8
2023-02-19T01:06:52.497Z,9.8
2023-02-19T01:11:03.442Z,9.7
2023-02-19T01:13:07.274Z,9.7
2023-02-19T01:15:11.088Z,9.7
2023-02-19T01:20:22.284Z,9.7
2023-02-19T01:24:33.204Z,9.6
2023-02-19T01:30:44.706Z,9.6
2023-02-19T01:32:48.522Z,9.6
2023-02-19T01:34:52.345Z,9.6
2023-02-19T01:36:56.154Z,9.5
2023-02-19T01:39:03.265Z,9.5
2023-02-19T01:45:14.748Z,9.4
2023-02-19T01:53:33.350Z,9.4
2023-02-19T02:03:52.460Z,9.5
2023-02-19T02:10:07.220Z,9.4
2023-02-19T02:13:14.550Z,9.4
2023-02-19T02:15:18.367Z,9.4
2023-02-19T02:17:22.210Z,9.4
2023-02-19T02:19:26.032Z,9.3
2023-02-19T02:21:33.155Z,9.4
2023-02-19T02:23:36.912Z,9.4
2023-02-19T02:25:40.836Z,9.3
2023-02-19T02:27:44.585Z,9.3
2023-02-19T02:29:48.443Z,9.3
2023-02-19T02:31:52.345Z,9.3
2023-02-19T02:36:04.750Z,9.3
2023-02-19T02:38:08.564Z,9.3
2023-02-19T02:40:12.383Z,9.4
2023-02-19T02:42:16.207Z,9.4
2023-02-19T02:44:20.003Z,9.4
2023-02-19T02:46:23.812Z,9.4
2023-02-19T02:48:27.665Z,9.4
2023-02-19T02:50:34.737Z,9.3
2023-02-19T02:52:38.570Z,9.3
2023-02-19T02:54:42.369Z,9.3
2023-02-19T02:56:46.228Z,9.2
2023-02-19T02:58:49.991Z,9.3
2023-02-19T03:00:53.817Z,9.2
2023-02-19T03:02:57.613Z,9.2
2023-02-19T03:05:04.715Z,9.3
2023-02-19T03:07:08.540Z,9.3
2023-02-19T03:09:12.384Z,9.3
2023-02-19T03:10:15.886Z,9.3
2023-02-19T03:12:19.797Z,9.4
2023-02-19T03:14:23.582Z,9.3
2023-02-19T03:16:27.498Z,9.3
2023-02-19T03:18:34.511Z,9.3
2023-02-19T03:20:38.317Z,9.2
2023-02-19T03:22:42.112Z,9.2
2023-02-19T03:24:45.928Z,9.2
2023-02-19T03:28:53.563Z,9.2
2023-02-19T03:30:57.416Z,9.2
2023-02-19T03:33:04.462Z,9.2
2023-02-19T03:35:08.301Z,9.2
2023-02-19T03:37:12.116Z,9.3
2023-02-19T03:39:15.946Z,9.3
2023-02-19T03:43:23.592Z,9.3
2023-02-19T03:45:27.407Z,9.3
2023-02-19T03:47:34.478Z,9.3
2023-02-19T03:49:38.290Z,9.2
2023-02-19T03:51:42.110Z,9.2
2023-02-19T03:55:49.745Z,9.2
2023-02-19T03:57:53.574Z,9.2
2023-02-19T03:59:57.388Z,9.2
2023-02-19T04:02:04.524Z,9.3
2023-02-19T04:04:08.292Z,9.2
2023-02-19T04:06:12.133Z,9.2
2023-02-19T04:08:30.499Z,9.1
2023-02-19T04:10:34.326Z,9.1
2023-02-19T04:12:38.157Z,9.1
2023-02-19T04:14:45.246Z,9.1
2023-02-19T04:16:49.095Z,9
2023-02-19T04:18:52.883Z,9
2023-02-19T04:20:56.688Z,9
2023-02-19T04:23:00.537Z,9
2023-02-19T04:25:04.377Z,9
2023-02-19T04:27:08.167Z,9
2023-02-19T04:29:15.277Z,9
2023-02-19T04:31:19.236Z,8.9
2023-02-19T04:33:22.899Z,8.9
2023-02-19T04:35:26.703Z,9
2023-02-19T04:39:34.338Z,8.9
2023-02-19T04:41:38.174Z,9
2023-02-19T04:45:49.089Z,8.9
2023-02-19T04:49:56.716Z,9
2023-02-19T04:52:00.539Z,9
2023-02-19T04:54:04.369Z,9
2023-02-19T04:56:08.136Z,9
2023-02-19T04:58:15.229Z,8.9
2023-02-19T05:00:19.047Z,8.9
2023-02-19T05:02:22.869Z,8.9
2023-02-19T05:07:34.086Z,8.9
2023-02-19T05:09:37.891Z,8.9
2023-02-19T05:15:52.723Z,8.9
2023-02-19T05:17:56.429Z,8.9
2023-02-19T05:20:00.255Z,8.9
2023-02-19T05:22:04.072Z,8.9
2023-02-19T05:24:07.926Z,8.9
2023-02-19T05:26:14.981Z,8.9
2023-02-19T05:28:18.844Z,8.8
2023-02-19T05:30:22.662Z,8.8
2023-02-19T05:32:26.449Z,8.8
2023-02-19T05:36:34.090Z,8.7
2023-02-19T05:38:37.921Z,8.7
2023-02-19T05:40:44.995Z,8.7
2023-02-19T05:42:51.125Z,8.6
2023-02-19T05:44:52.594Z,8.7
2023-02-19T05:46:56.444Z,8.7
2023-02-19T05:51:04.087Z,8.6
2023-02-19T05:53:07.880Z,8.6
2023-02-19T05:55:14.972Z,8.7
2023-02-19T05:57:18.780Z,8.6
2023-02-19T05:59:22.610Z,8.7
2023-02-19T06:00:26.196Z,8.7
2023-02-19T06:02:29.949Z,8.7
2023-02-19T06:04:33.791Z,8.7
2023-02-19T06:06:37.594Z,8.6
2023-02-19T06:08:44.698Z,8.7
2023-02-19T06:10:48.757Z,8.6
2023-02-19T06:12:52.326Z,8.7
2023-02-19T06:14:56.134Z,8.7
2023-02-19T06:16:59.944Z,8.6
2023-02-19T06:19:03.756Z,8.6
2023-02-19T06:21:07.601Z,8.6
2023-02-19T06:23:14.644Z,8.6
2023-02-19T06:25:18.471Z,8.5
2023-02-19T06:27:22.305Z,8.5
2023-02-19T06:33:33.683Z,8.5
2023-02-19T06:35:37.503Z,8.4
2023-02-19T06:37:44.576Z,8.4
2023-02-19T06:39:48.384Z,8.4
2023-02-19T06:41:52.206Z,8.4
2023-02-19T06:43:56.013Z,8.4
2023-02-19T06:45:59.835Z,8.4
2023-02-19T06:48:03.628Z,8.4
2023-02-19T06:50:07.438Z,8.4
2023-02-19T06:52:14.491Z,8.3
2023-02-19T06:56:22.135Z,8.4
2023-02-19T06:57:25.681Z,8.3
2023-02-19T07:01:33.331Z,8.4
2023-02-19T07:03:37.143Z,8.4
2023-02-19T07:05:44.200Z,8.4
2023-02-19T07:07:48.012Z,8.4
2023-02-19T07:09:51.818Z,8.4
2023-02-19T07:11:55.645Z,8.4
2023-02-19T07:16:03.330Z,8.4
2023-02-19T07:18:07.087Z,8.4
2023-02-19T07:20:14.130Z,8.4
2023-02-19T07:22:17.960Z,8.4
2023-02-19T07:24:21.782Z,8.4
2023-02-19T07:26:25.599Z,8.3
2023-02-19T07:28:29.400Z,8.4
2023-02-19T07:30:33.281Z,8.4
2023-02-19T07:32:37.017Z,8.3
2023-02-19T07:34:44.120Z,8.3
2023-02-19T07:36:47.915Z,8.3
2023-02-19T07:38:51.731Z,8.3
2023-02-19T07:40:55.554Z,8.3
2023-02-19T07:42:59.361Z,8.3
2023-02-19T07:45:03.191Z,8.3
2023-02-19T07:47:06.999Z,8.2
2023-02-19T07:49:14.067Z,8.3
2023-02-19T07:51:17.871Z,8.3
2023-02-19T07:53:21.685Z,8.3
2023-02-19T07:57:54.117Z,8.3
2023-02-19T07:59:57.975Z,8.3
2023-02-19T08:02:05.022Z,8.3
2023-02-19T08:04:08.815Z,8.3
2023-02-19T08:06:12.726Z,8.3
2023-02-19T08:08:16.491Z,8.3
2023-02-19T08:10:20.279Z,8.3
2023-02-19T08:12:24.096Z,8.3
2023-02-19T08:14:27.890Z,8.4
2023-02-19T08:16:43.083Z,8.4
2023-02-19T08:18:38.750Z,8.3
2023-02-19T08:20:42.560Z,8.4
2023-02-19T08:22:46.378Z,8.4
2023-02-19T08:24:50.195Z,8.4
2023-02-19T08:26:53.996Z,8.3
2023-02-19T08:28:57.800Z,8.3
2023-02-19T08:31:04.970Z,8.4
2023-02-19T08:33:10.309Z,8.4
2023-02-19T08:35:14.088Z,8.4
2023-02-19T08:37:17.873Z,8.4
2023-02-19T08:39:21.706Z,8.4
2023-02-19T08:45:36.404Z,8.4
2023-02-19T08:50:47.537Z,8.1
2023-02-19T08:59:06.118Z,7.9
2023-02-19T09:01:10.467Z,8
2023-02-19T09:03:13.679Z,8
2023-02-19T09:05:17.517Z,8
2023-02-19T09:09:25.131Z,8
2023-02-19T09:13:36.084Z,8
2023-02-19T09:17:43.608Z,8
2023-02-19T09:19:49.428Z,8
2023-02-19T09:21:51.233Z,8
2023-02-19T09:23:55.048Z,7.8
2023-02-19T09:25:58.871Z,7.6
2023-02-19T09:28:05.945Z,7.6
2023-02-19T09:30:09.808Z,7.6
2023-02-19T09:32:13.586Z,7.6
2023-02-19T09:34:17.364Z,7.4
2023-02-19T09:36:21.196Z,7.3
2023-02-19T09:38:25.565Z,7.3
2023-02-19T09:40:28.825Z,7.2
2023-02-19T09:42:35.900Z,7.1
2023-02-19T09:44:39.691Z,7.1
2023-02-19T09:46:43.543Z,7.1
2023-02-19T09:47:47.037Z,7.2
2023-02-19T09:51:54.671Z,7.1
2023-02-19T09:53:58.488Z,7.1
2023-02-19T09:56:05.558Z,7.1
2023-02-19T10:00:13.172Z,7.1
2023-02-19T10:02:16.981Z,7.1
2023-02-19T10:04:20.786Z,7.1
2023-02-19T10:06:24.620Z,7
2023-02-19T10:08:28.378Z,7
2023-02-19T10:10:35.486Z,7
2023-02-19T10:12:39.264Z,7
2023-02-19T10:14:43.094Z,6.9
2023-02-19T10:16:46.884Z,7
2023-02-19T10:20:54.474Z,7
2023-02-19T10:25:05.365Z,7.1
2023-02-19T10:29:12.967Z,7.1
2023-02-19T10:31:18.768Z,7.3
2023-02-19T10:33:20.558Z,7.4
2023-02-19T10:35:24.363Z,7.4
2023-02-19T10:37:28.159Z,7.4
2023-02-19T10:39:35.252Z,7.3
2023-02-19T10:41:39.048Z,7.2
2023-02-19T10:43:42.858Z,7.3
2023-02-19T10:44:46.378Z,7.3
2023-02-19T10:48:54.008Z,7.2
2023-02-19T10:50:57.813Z,7.3
2023-02-19T10:53:04.883Z,7.3
2023-02-19T10:55:08.690Z,7.4
2023-02-19T10:57:12.508Z,7.4
2023-02-19T10:59:16.289Z,7.5
2023-02-19T11:03:23.895Z,7.9
2023-02-19T11:05:27.701Z,7.7
2023-02-19T11:07:34.748Z,7.8
2023-02-19T11:09:38.563Z,7.8
2023-02-19T11:11:42.369Z,8
2023-02-19T11:15:49.999Z,7.8
2023-02-19T11:17:53.777Z,8.1
2023-02-19T11:19:57.616Z,8
2023-02-19T11:22:04.672Z,8
2023-02-19T11:24:08.493Z,8
2023-02-19T11:26:12.295Z,8
2023-02-19T11:28:16.121Z,8
2023-02-19T11:30:19.978Z,7.8
2023-02-19T11:32:23.772Z,7.7
2023-02-19T11:34:27.548Z,7.6
2023-02-19T11:36:34.646Z,7.6
2023-02-19T11:38:38.452Z,7.5
2023-02-19T11:40:42.261Z,7.4
2023-02-19T11:45:04.492Z,7.6
2023-02-19T11:47:08.289Z,7.7
2023-02-19T11:49:15.382Z,7.6
2023-02-19T11:53:22.990Z,7.4
2023-02-19T11:55:26.820Z,7.3
2023-02-19T11:57:30.628Z,7.3
2023-02-19T11:59:34.447Z,7.2
2023-02-19T12:01:38.339Z,7.1
2023-02-19T12:03:45.302Z,7.1
2023-02-19T12:05:49.116Z,7.1
2023-02-19T12:07:52.939Z,7.2
2023-02-19T12:09:56.831Z,7.3
2023-02-19T12:12:00.550Z,7.3
2023-02-19T12:14:04.340Z,7.4
2023-02-19T12:16:08.182Z,7.4
2023-02-19T12:20:19.043Z,7.5
2023-02-19T12:22:22.861Z,7.4
2023-02-19T12:26:30.510Z,7.4
2023-02-19T12:28:34.273Z,7.4
2023-02-19T12:30:38.099Z,7.4
2023-02-19T12:32:45.157Z,7.4
2023-02-19T12:34:48.955Z,7.4
2023-02-19T12:36:52.774Z,7.5
2023-02-19T12:40:00.124Z,7.3
2023-02-19T12:42:03.914Z,7.4
2023-02-19T12:44:07.732Z,7.6
2023-02-19T12:48:18.558Z,7.7
2023-02-19T12:50:22.371Z,7.6
2023-02-19T12:52:26.173Z,7.5
2023-02-19T12:54:29.977Z,7.4
2023-02-19T12:56:33.802Z,7.4
2023-02-19T12:58:37.631Z,7.5
2023-02-19T13:00:44.706Z,7.4
2023-02-19T13:02:48.515Z,7.5
2023-02-19T13:04:52.328Z,7.4
2023-02-19T13:06:56.128Z,7.3
2023-02-19T13:09:07.003Z,7.3
2023-02-19T13:11:03.767Z,7.3
2023-02-19T13:13:07.565Z,7.3
2023-02-19T13:15:14.620Z,7.3
2023-02-19T13:17:18.447Z,7.3
2023-02-19T13:27:37.466Z,7
2023-02-19T13:31:48.444Z,7.1
2023-02-19T13:41:07.136Z,7.4
2023-02-19T13:43:14.157Z,7.5
2023-02-19T13:45:17.974Z,7.5
2023-02-19T13:47:21.784Z,7.5
2023-02-19T13:49:25.590Z,7.5
2023-02-19T13:51:29.383Z,7.4
2023-02-19T13:53:33.185Z,7.3
2023-02-19T13:55:36.992Z,7.3
2023-02-19T13:57:44.085Z,7.4
2023-02-19T13:59:47.877Z,7.4
2023-02-19T14:01:51.911Z,7.5
2023-02-19T14:03:55.506Z,7.7
2023-02-19T14:05:59.309Z,7.7
2023-02-19T14:08:03.092Z,7.9
2023-02-19T14:10:06.937Z,7.9
2023-02-19T14:12:15.854Z,8
2023-02-19T14:14:17.765Z,7.9
2023-02-19T14:16:21.554Z,7.9
2023-02-19T14:18:25.369Z,7.9
2023-02-19T14:20:29.177Z,8
2023-02-19T14:22:32.962Z,8
2023-02-19T14:24:36.777Z,8
2023-02-19T14:31:56.688Z,8
2023-02-19T14:34:00.439Z,8
2023-02-19T14:36:04.239Z,8
2023-02-19T14:38:08.039Z,7.9
2023-02-19T14:42:18.918Z,8
2023-02-19T14:44:22.751Z,8.1
2023-02-19T14:46:26.590Z,8
2023-02-19T14:48:30.363Z,8
2023-02-19T14:50:34.173Z,8
2023-02-19T14:52:37.986Z,7.9
2023-02-19T14:54:45.033Z,7.9
2023-02-19T14:56:48.858Z,7.9
2023-02-19T15:03:00.285Z,7.8
2023-02-19T15:07:07.934Z,7.8
2023-02-19T15:09:15.001Z,7.7
2023-02-19T15:13:22.613Z,7.7
2023-02-19T15:21:37.875Z,7.7
2023-02-19T15:23:44.967Z,7.8
2023-02-19T15:25:48.748Z,7.7
2023-02-19T15:27:52.575Z,7.8
2023-02-19T15:30:17.748Z,7.7
2023-02-19T15:32:21.741Z,7.7
2023-02-19T15:34:25.369Z,7.8
2023-02-19T15:36:32.454Z,7.8
2023-02-19T15:38:36.237Z,7.8
2023-02-19T15:40:40.063Z,7.8
2023-02-19T15:42:43.852Z,7.8
2023-02-19T15:44:47.686Z,7.8
2023-02-19T15:46:51.484Z,7.7
2023-02-19T15:48:55.293Z,7.8
2023-02-19T15:51:02.416Z,7.7
2023-02-19T15:53:06.160Z,7.6
2023-02-19T15:55:09.981Z,7.6
2023-02-19T15:57:13.784Z,7.6
2023-02-19T15:59:17.588Z,7.6
2023-02-19T16:03:25.201Z,7.6
2023-02-19T16:05:32.264Z,7.5
2023-02-19T16:07:36.090Z,7.5
2023-02-19T16:09:39.875Z,7.5
2023-02-19T16:11:43.745Z,7.5
2023-02-19T16:13:47.501Z,7.5
2023-02-19T16:15:51.349Z,7.4
2023-02-19T16:17:55.130Z,7.4
2023-02-19T16:20:02.282Z,7.4
2023-02-19T16:24:09.777Z,7.5
2023-02-19T16:33:31.863Z,7.4
2023-02-19T16:35:35.621Z,7.4
2023-02-19T16:37:40.883Z,7.4
2023-02-19T16:39:43.238Z,7.3
2023-02-19T16:41:47.071Z,7.3
2023-02-19T16:52:09.348Z,7.3
2023-02-19T16:58:20.763Z,7.2
2023-02-19T17:00:24.578Z,7.2
2023-02-19T17:06:39.623Z,7.2
2023-02-19T17:08:43.424Z,7.2
2023-02-19T17:10:47.241Z,7.1
2023-02-19T17:12:51.037Z,7.1
2023-02-19T17:14:54.835Z,7.1
2023-02-19T17:17:02.404Z,7.1
2023-02-19T17:19:05.688Z,7.1
2023-02-19T17:21:09.899Z,7
2023-02-19T17:28:24.439Z,7
2023-02-19T17:30:31.583Z,7
2023-02-19T17:34:39.128Z,7
2023-02-19T17:40:50.649Z,6.9
2023-02-19T17:42:54.455Z,6.9
2023-02-19T17:45:01.536Z,6.9
2023-02-19T17:49:09.162Z,6.9
2023-02-19T17:51:13.262Z,6.8
2023-02-19T17:55:20.588Z,6.8
2023-02-19T17:57:24.402Z,6.8
2023-02-19T17:59:31.428Z,6.8
2023-02-19T18:01:35.296Z,6.8
2023-02-19T18:03:39.083Z,6.8
2023-02-19T18:05:42.833Z,6.7
2023-02-19T18:07:46.673Z,6.8
2023-02-19T18:09:50.462Z,6.7
2023-02-19T18:11:54.285Z,6.7
2023-02-19T18:14:01.368Z,6.7
2023-02-19T18:16:05.112Z,6.7
2023-02-19T18:18:08.898Z,6.7
2023-02-19T18:19:12.549Z,6.7
2023-02-19T18:21:16.237Z,6.7
2023-02-19T18:23:20.137Z,6.7
2023-02-19T18:25:23.917Z,6.7
2023-02-19T18:27:30.954Z,6.6
2023-02-19T18:29:35.185Z,6.6
2023-02-19T18:31:38.632Z,6.6
2023-02-19T18:33:42.353Z,6.6
2023-02-19T18:35:46.173Z,6.6
2023-02-19T18:37:49.972Z,6.6
2023-02-19T18:39:53.801Z,6.6
2023-02-19T18:42:00.845Z,6.6
2023-02-19T18:46:08.472Z,6.6
2023-02-19T18:48:12.233Z,6.6
2023-02-19T18:50:16.028Z,6.6
2023-02-19T18:52:19.822Z,6.6
2023-02-19T18:54:23.638Z,6.5
2023-02-19T18:56:30.697Z,6.5
2023-02-19T18:58:34.508Z,6.5
2023-02-19T19:00:38.295Z,6.5
2023-02-19T19:02:49.126Z,6.5
2023-02-19T19:04:45.887Z,6.5
2023-02-19T19:06:49.835Z,6.5
2023-02-19T19:08:53.488Z,6.5
2023-02-19T19:11:00.556Z,6.4
2023-02-19T19:13:04.355Z,6.4
2023-02-19T19:15:08.233Z,6.4
2023-02-19T19:17:32.588Z,6.3
2023-02-19T19:23:47.238Z,6.3
2023-02-19T19:29:58.641Z,6.3
2023-02-19T19:36:10.030Z,6.3
2023-02-19T19:38:17.094Z,6.3
2023-02-19T19:40:20.866Z,6.3
2023-02-19T19:42:24.672Z,6.3
2023-02-19T19:44:28.475Z,6.2
2023-02-19T19:46:32.316Z,6.1
2023-02-19T19:50:39.849Z,6
2023-02-19T19:52:46.882Z,5.9
2023-02-19T19:54:50.692Z,5.8
2023-02-19T19:56:54.494Z,5.8
2023-02-19T19:58:58.288Z,5.8
2023-02-19T20:01:02.072Z,5.8
2023-02-19T20:03:05.919Z,5.7
2023-02-19T20:05:09.653Z,5.6
2023-02-19T20:07:16.711Z,5.6
2023-02-19T20:09:20.510Z,5.6
2023-02-19T20:11:24.285Z,5.6
2023-02-19T20:12:27.817Z,5.6
2023-02-19T20:14:31.576Z,5.6
2023-02-19T20:16:35.352Z,5.6
2023-02-19T20:18:39.134Z,5.5
2023-02-19T20:20:46.227Z,5.4
2023-02-19T20:22:49.994Z,5.4
2023-02-19T20:24:53.755Z,5.3
2023-02-19T20:26:57.547Z,5.3
2023-02-19T20:35:17.545Z,5.1
2023-02-19T20:37:21.306Z,5.1
2023-02-19T20:41:28.855Z,5.1
2023-02-19T20:47:40.206Z,5
2023-02-19T20:51:50.963Z,4.9
2023-02-19T20:55:58.519Z,5
2023-02-19T21:02:09.817Z,4.9
2023-02-19T21:04:16.853Z,4.9
2023-02-19T21:06:20.663Z,4.8
2023-02-19T21:08:24.409Z,4.8
2023-02-19T21:09:27.903Z,4.8
2023-02-19T21:15:39.220Z,4.8
2023-02-19T21:17:46.264Z,4.9
2023-02-19T21:19:50.324Z,4.9
2023-02-19T21:21:53.799Z,4.8
2023-02-19T21:23:57.559Z,4.8
2023-02-19T21:26:01.052Z,4.8
2023-02-19T21:28:04.809Z,4.8
2023-02-19T21:30:08.652Z,4.8
2023-02-19T21:34:19.379Z,4.8
2023-02-19T21:44:38.203Z,4.7
2023-02-19T21:46:45.227Z,4.8
2023-02-19T21:48:48.987Z,4.8
2023-02-19T21:50:52.770Z,4.8
2023-02-19T21:52:56.546Z,4.9
2023-02-19T21:55:00.376Z,4.8
2023-02-19T21:57:04.036Z,4.8
2023-02-19T21:59:07.785Z,4.8
2023-02-19T22:01:14.911Z,4.8
2023-02-19T22:03:18.558Z,4.8
2023-02-19T22:05:22.325Z,4.8
2023-02-19T22:08:29.612Z,4.8
2023-02-19T22:10:33.364Z,4.8
2023-02-19T22:12:37.101Z,4.8
2023-02-19T22:16:48.015Z,4.7
2023-02-19T22:18:51.677Z,4.7
2023-02-19T22:33:21.221Z,4.6
2023-02-19T22:35:24.983Z,4.7
2023-02-19T22:37:28.737Z,4.8
2023-02-19T22:39:32.469Z,4.8
2023-02-19T22:41:36.261Z,4.8
2023-02-19T22:43:43.299Z,4.8
2023-02-19T22:45:47.069Z,4.8
2023-02-19T22:47:50.802Z,4.8
2023-02-19T22:49:54.537Z,4.8
2023-02-19T22:51:58.298Z,4.8
2023-02-19T22:54:02.067Z,4.8
2023-02-19T22:56:05.801Z,4.8
2023-02-19T22:58:12.852Z,4.8
2023-02-19T23:00:16.610Z,4.8
2023-02-19T23:02:20.355Z,4.8
2023-02-19T23:10:59.801Z,5
2023-02-19T23:13:03.544Z,5
2023-02-19T23:15:07.321Z,5.1
2023-02-19T23:17:11.083Z,5
2023-02-19T23:19:14.836Z,5
2023-02-19T23:21:18.598Z,5
2023-02-19T23:23:22.371Z,5.1
2023-02-19T23:25:29.390Z,5.2
2023-02-19T23:27:33.144Z,5.1
2023-02-19T23:29:36.922Z,5.2
2023-02-19T23:31:40.792Z,5.3
2023-02-19T23:33:44.456Z,5.2
2023-02-19T23:39:59.026Z,5.3
2023-02-19T23:42:02.779Z,5.3
2023-02-19T23:48:14.084Z,5.3
2023-02-19T23:52:21.637Z,5.3
2023-02-19T23:59:39.719Z,5.3
